createdAt,value
2022-12-15T00:02:54.253Z,30.90
2022-12-15T00:06:15.007Z,24.87
2022-12-15T00:09:35.724Z,25.67
2022-12-15T00:12:56.129Z,25.40
2022-12-15T00:16:16.799Z,25.60
2022-12-15T00:19:38.649Z,22.43
2022-12-15T00:22:59.178Z,24.17
2022-12-15T00:26:20.186Z,24.27
2022-12-15T00:29:40.525Z,24.60
2022-12-15T00:33:00.783Z,25.10
2022-12-15T00:36:22.741Z,23.67
2022-12-15T00:39:25.819Z,22.87
2022-12-15T00:42:29.464Z,22.67
2022-12-15T00:45:46.457Z,23.03
2022-12-15T00:48:50.133Z,23.00
2022-12-15T00:52:11.934Z,24.60
2022-12-15T00:55:32.551Z,25.47
2022-12-15T00:58:52.895Z,23.17
2022-12-15T01:02:15.473Z,25.27
2022-12-15T01:05:35.912Z,25.67
2022-12-15T01:08:57.781Z,23.83
2022-12-15T01:12:18.076Z,26.13
2022-12-15T01:15:38.765Z,25.53
2022-12-15T01:18:59.157Z,23.30
2022-12-15T01:22:02.258Z,22.73
2022-12-15T01:25:08.887Z,23.53
2022-12-15T01:28:11.942Z,23.17
2022-12-15T01:31:15.378Z,21.47
2022-12-15T01:34:20.170Z,25.50
2022-12-15T01:37:23.420Z,23.40
2022-12-15T01:40:44.621Z,24.10
2022-12-15T01:43:47.807Z,24.60
2022-12-15T01:46:56.839Z,23.30
2022-12-15T01:50:00.048Z,22.67
2022-12-15T01:53:04.551Z,25.53
2022-12-15T01:56:10.649Z,24.30
2022-12-15T01:59:17.609Z,23.00
2022-12-15T02:02:23.543Z,24.40
2022-12-15T02:05:26.780Z,26.67
2022-12-15T02:08:31.249Z,22.40
2022-12-15T02:11:57.320Z,23.10
2022-12-15T02:15:17.317Z,23.63
2022-12-15T02:18:24.477Z,23.27
2022-12-15T02:21:32.518Z,24.47
2022-12-15T02:24:52.883Z,22.83
2022-12-15T02:28:03.177Z,22.03
2022-12-15T02:31:31.013Z,23.60
2022-12-15T02:34:40.263Z,23.37
2022-12-15T02:37:43.991Z,23.10
2022-12-15T02:40:47.089Z,23.63
2022-12-15T02:43:50.317Z,23.23
2022-12-15T02:47:14.627Z,23.40
2022-12-15T02:50:42.323Z,22.77
2022-12-15T02:54:11.535Z,20.80
2022-12-15T02:57:22.909Z,22.23
2022-12-15T03:00:26.058Z,22.00
2022-12-15T03:03:33.441Z,21.87
2022-12-15T03:06:37.076Z,23.23
2022-12-15T03:09:40.181Z,24.37
2022-12-15T03:12:43.262Z,23.47
2022-12-15T03:15:46.354Z,22.27
2022-12-15T03:18:51.189Z,23.73
2022-12-15T03:21:54.405Z,24.20
2022-12-15T03:24:57.466Z,24.43
2022-12-15T03:28:00.831Z,23.50
2022-12-15T03:31:03.924Z,23.47
2022-12-15T03:34:08.458Z,23.70
2022-12-15T03:37:11.575Z,22.17
2022-12-15T03:40:14.958Z,21.80
2022-12-15T03:43:18.139Z,25.70
2022-12-15T03:46:21.290Z,22.67
2022-12-15T03:49:25.895Z,20.80
2022-12-15T03:52:28.986Z,23.07
2022-12-15T03:55:32.460Z,22.80
2022-12-15T03:58:35.605Z,23.63
2022-12-15T04:01:39.116Z,21.80
2022-12-15T04:04:43.637Z,21.63
2022-12-15T04:07:46.809Z,26.00
2022-12-15T04:10:49.858Z,24.00
2022-12-15T04:13:52.944Z,24.00
2022-12-15T04:16:56.128Z,24.50
2022-12-15T04:20:12.420Z,22.27
2022-12-15T04:23:15.544Z,24.57
2022-12-15T04:26:36.158Z,24.00
2022-12-15T04:29:56.606Z,26.87
2022-12-15T04:33:18.699Z,23.80
2022-12-15T04:36:41.395Z,26.60
2022-12-15T04:40:05.921Z,23.57
2022-12-15T04:43:26.318Z,23.97
2022-12-15T04:46:46.659Z,23.40
2022-12-15T04:50:07.358Z,23.87
2022-12-15T04:53:31.041Z,24.43
2022-12-15T04:56:51.830Z,24.37
2022-12-15T05:00:12.332Z,24.13
2022-12-15T05:03:32.878Z,25.23
2022-12-15T05:06:53.679Z,25.30
2022-12-15T05:10:15.554Z,24.43
2022-12-15T05:13:36.073Z,26.33
2022-12-15T05:16:56.726Z,25.70
2022-12-15T05:20:16.933Z,24.47
2022-12-15T05:23:37.230Z,25.97
2022-12-15T05:26:58.867Z,26.50
2022-12-15T05:30:19.231Z,24.93
2022-12-15T05:33:22.342Z,25.30
2022-12-15T05:36:25.505Z,25.23
2022-12-15T05:39:29.034Z,25.63
2022-12-15T05:42:33.466Z,26.70
2022-12-15T05:45:36.988Z,25.70
2022-12-15T05:48:40.284Z,25.37
2022-12-15T05:51:45.419Z,25.80
2022-12-15T05:54:48.561Z,28.27
2022-12-15T05:57:54.120Z,27.97
2022-12-15T06:01:04.718Z,26.00
2022-12-15T06:04:08.614Z,27.13
2022-12-15T06:07:11.784Z,27.70
2022-12-15T06:10:14.904Z,28.90
2022-12-15T06:13:20.075Z,26.87
2022-12-15T06:16:24.898Z,26.37
2022-12-15T06:19:28.070Z,29.87
2022-12-15T06:22:31.334Z,29.30
2022-12-15T06:25:34.512Z,34.03
2022-12-15T06:28:39.247Z,26.10
2022-12-15T06:31:42.883Z,26.60
2022-12-15T06:34:46.218Z,25.53
2022-12-15T06:37:49.319Z,25.50
2022-12-15T06:40:56.497Z,24.67
2022-12-15T06:44:01.753Z,28.37
2022-12-15T06:47:05.019Z,29.33
2022-12-15T06:50:08.772Z,26.30
2022-12-15T06:53:11.980Z,23.90
2022-12-15T06:56:18.692Z,25.93
2022-12-15T06:59:23.160Z,23.57
2022-12-15T07:02:28.986Z,24.23
2022-12-15T07:05:32.510Z,24.70
2022-12-15T07:08:41.384Z,26.53
2022-12-15T07:11:45.234Z,24.37
2022-12-15T07:14:53.415Z,24.70
2022-12-15T07:17:56.868Z,25.63
2022-12-15T07:21:04.488Z,24.40
2022-12-15T07:24:08.529Z,27.60
2022-12-15T07:27:11.815Z,24.90
2022-12-15T07:30:17.646Z,26.10
2022-12-15T07:33:20.756Z,24.40
2022-12-15T07:36:23.868Z,25.77
2022-12-15T07:39:27.424Z,24.90
2022-12-15T07:42:31.097Z,25.00
2022-12-15T07:45:35.594Z,27.60
2022-12-15T07:48:38.747Z,25.20
2022-12-15T07:51:42.227Z,25.10
2022-12-15T07:54:45.425Z,24.57
2022-12-15T07:57:48.822Z,24.57
2022-12-15T08:00:53.442Z,27.00
2022-12-15T08:03:56.829Z,25.30
2022-12-15T08:07:00.299Z,24.40
2022-12-15T08:10:03.580Z,24.57
2022-12-15T08:13:06.756Z,26.90
2022-12-15T08:16:11.623Z,25.40
2022-12-15T08:19:16.884Z,24.00
2022-12-15T08:22:20.098Z,25.57
2022-12-15T08:25:23.271Z,25.00
2022-12-15T08:28:26.384Z,26.73
2022-12-15T08:31:32.917Z,25.50
2022-12-15T08:34:36.573Z,25.63
2022-12-15T08:37:40.324Z,25.50
2022-12-15T08:40:43.510Z,26.47
2022-12-15T08:43:49.185Z,25.43
2022-12-15T08:46:54.097Z,27.23
2022-12-15T08:49:57.206Z,26.17
2022-12-15T08:53:29.627Z,25.60
2022-12-15T08:56:25.347Z,26.10
2022-12-15T08:59:28.594Z,26.60
2022-12-15T09:02:33.782Z,25.10
2022-12-15T09:05:37.141Z,27.53
2022-12-15T09:08:40.292Z,28.13
2022-12-15T09:11:43.418Z,27.63
2022-12-15T09:14:46.524Z,29.33
2022-12-15T09:17:51.042Z,27.37
2022-12-15T09:20:55.095Z,28.07
2022-12-15T09:24:00.874Z,28.87
2022-12-15T09:27:05.124Z,29.07
2022-12-15T09:30:09.693Z,28.27
2022-12-15T09:33:14.165Z,31.90
2022-12-15T09:36:17.340Z,30.57
2022-12-15T09:39:20.638Z,29.47
2022-12-15T09:42:25.999Z,29.07
2022-12-15T09:45:35.480Z,29.43
2022-12-15T09:48:42.985Z,29.57
2022-12-15T09:51:57.037Z,28.33
2022-12-15T09:55:01.815Z,27.87
2022-12-15T09:58:13.662Z,27.40
2022-12-15T10:01:29.084Z,29.23
2022-12-15T10:04:43.165Z,29.83
2022-12-15T10:07:50.448Z,28.57
2022-12-15T10:10:57.558Z,27.90
2022-12-15T10:14:07.448Z,30.60
2022-12-15T10:17:21.486Z,31.40
2022-12-15T10:20:27.841Z,30.23
2022-12-15T10:23:31.458Z,32.90
2022-12-15T10:26:36.443Z,30.60
2022-12-15T10:29:45.127Z,31.30
2022-12-15T10:33:02.619Z,31.13
2022-12-15T10:36:12.132Z,31.03
2022-12-15T10:39:17.678Z,31.10
2022-12-15T10:42:22.907Z,31.43
2022-12-15T10:45:35.761Z,31.20
2022-12-15T10:48:39.157Z,31.17
2022-12-15T10:51:49.001Z,31.40
2022-12-15T10:54:53.795Z,30.20
2022-12-15T10:58:00.917Z,29.43
2022-12-15T11:01:09.309Z,32.00
2022-12-15T11:04:27.212Z,29.40
2022-12-15T11:07:36.778Z,29.73
2022-12-15T11:11:09.182Z,30.80
2022-12-15T11:14:16.315Z,30.33
2022-12-15T11:17:21.145Z,30.07
2022-12-15T11:20:29.914Z,28.93
2022-12-15T11:23:51.299Z,29.40
2022-12-15T11:26:58.682Z,28.03
2022-12-15T11:30:05.836Z,27.40
2022-12-15T11:33:10.698Z,30.97
2022-12-15T11:36:22.140Z,30.43
2022-12-15T11:39:46.986Z,30.33
2022-12-15T11:43:06.821Z,29.17
2022-12-15T11:46:20.775Z,28.10
2022-12-15T11:49:52.388Z,30.67
2022-12-15T11:53:15.876Z,28.10
2022-12-15T11:56:28.429Z,30.80
2022-12-15T11:59:48.446Z,33.73
2022-12-15T12:03:02.004Z,31.67
2022-12-15T12:06:12.989Z,30.07
2022-12-15T12:09:30.402Z,29.80
2022-12-15T12:12:41.419Z,31.07
2022-12-15T12:15:55.669Z,30.33
2022-12-15T12:19:03.650Z,30.30
2022-12-15T12:22:12.967Z,30.53
2022-12-15T12:25:20.382Z,29.80
2022-12-15T12:28:33.191Z,28.60
2022-12-15T12:31:47.825Z,28.43
2022-12-15T12:35:32.210Z,28.00
2022-12-15T12:38:29.425Z,30.10
2022-12-15T12:41:40.517Z,28.80
2022-12-15T12:44:45.598Z,29.43
2022-12-15T12:47:54.175Z,28.43
2022-12-15T12:51:13.713Z,29.20
2022-12-15T12:54:48.642Z,30.33
2022-12-15T12:57:54.424Z,29.57
2022-12-15T13:01:17.957Z,27.60
2022-12-15T13:04:40.040Z,28.80
2022-12-15T13:07:43.215Z,29.43
2022-12-15T13:10:50.890Z,30.40
2022-12-15T13:13:55.314Z,30.30
2022-12-15T13:17:26.079Z,29.67
2022-12-15T13:20:31.044Z,30.07
2022-12-15T13:23:41.691Z,31.20
2022-12-15T13:30:17.065Z,30.80
2022-12-15T13:33:21.609Z,30.50
2022-12-15T13:37:00.527Z,29.83
2022-12-15T13:40:23.940Z,29.83
2022-12-15T13:43:44.650Z,32.10
2022-12-15T13:46:49.540Z,30.23
2022-12-15T13:50:02.715Z,33.57
2022-12-15T13:53:19.417Z,31.70
2022-12-15T13:56:33.512Z,31.53
2022-12-15T13:59:43.729Z,30.80
2022-12-15T14:02:47.421Z,31.10
2022-12-15T14:05:55.400Z,31.40
2022-12-15T14:08:58.607Z,31.33
2022-12-15T14:12:03.590Z,30.40
2022-12-15T14:15:08.302Z,33.17
2022-12-15T14:18:26.803Z,34.10
2022-12-15T14:21:31.563Z,36.73
2022-12-15T14:24:40.223Z,32.93
2022-12-15T14:27:43.764Z,30.97
2022-12-15T14:30:46.907Z,30.87
2022-12-15T14:34:01.693Z,31.20
2022-12-15T14:37:11.799Z,30.80
2022-12-15T14:40:18.142Z,31.60
2022-12-15T14:43:24.766Z,32.17
2022-12-15T14:46:29.540Z,29.70
2022-12-15T14:49:37.387Z,30.17
2022-12-15T14:52:44.692Z,31.33
2022-12-15T14:55:47.878Z,31.97
2022-12-15T14:58:59.334Z,33.10
2022-12-15T15:02:12.866Z,31.77
2022-12-15T15:05:28.573Z,31.47
2022-12-15T15:08:36.258Z,33.00
2022-12-15T15:11:42.889Z,30.97
2022-12-15T15:14:48.103Z,30.77
2022-12-15T15:17:53.511Z,31.27
2022-12-15T15:20:59.985Z,31.03
2022-12-15T15:24:21.270Z,31.57
2022-12-15T15:27:27.041Z,30.23
2022-12-15T15:30:31.278Z,29.47
2022-12-15T15:33:34.661Z,32.10
2022-12-15T15:36:39.871Z,30.63
2022-12-15T15:39:44.407Z,29.47
2022-12-15T15:42:49.082Z,30.67
2022-12-15T15:46:00.139Z,32.90
2022-12-15T15:49:06.444Z,30.03
2022-12-15T15:52:10.872Z,32.23
2022-12-15T15:55:25.849Z,30.70
2022-12-15T15:58:29.303Z,30.80
2022-12-15T16:01:32.893Z,29.90
2022-12-15T16:04:37.263Z,32.57
2022-12-15T16:07:40.582Z,34.30
2022-12-15T16:10:48.731Z,33.73
2022-12-15T16:13:51.906Z,33.73
2022-12-15T16:16:55.078Z,36.30
2022-12-15T16:19:58.186Z,36.07
2022-12-15T16:23:03.454Z,41.40
2022-12-15T16:26:15.513Z,38.27
2022-12-15T16:29:20.747Z,40.83
2022-12-15T16:32:23.960Z,42.10
2022-12-15T16:35:27.860Z,43.03
2022-12-15T16:38:32.997Z,40.93
2022-12-15T16:41:37.935Z,40.70
2022-12-15T16:44:41.176Z,38.93
2022-12-15T16:47:44.323Z,38.37
2022-12-15T16:50:51.965Z,36.37
2022-12-15T16:53:55.241Z,37.13
2022-12-15T16:57:01.681Z,37.63
2022-12-15T17:00:15.793Z,36.27
2022-12-15T17:03:23.421Z,36.87
2022-12-15T17:06:27.668Z,38.27
2022-12-15T17:09:35.584Z,35.13
2022-12-15T17:12:40.103Z,35.33
2022-12-15T17:15:43.480Z,34.70
2022-12-15T17:18:47.068Z,32.80
2022-12-15T17:21:53.071Z,35.30
2022-12-15T17:24:56.883Z,32.10
2022-12-15T17:28:06.653Z,33.20
2022-12-15T17:31:17.884Z,34.90
2022-12-15T17:34:29.181Z,35.77
2022-12-15T17:37:35.374Z,33.83
2022-12-15T17:40:39.402Z,33.73
2022-12-15T17:43:44.950Z,30.40
2022-12-15T17:46:48.659Z,33.37
2022-12-15T17:49:52.254Z,33.23
2022-12-15T17:52:56.044Z,34.00
2022-12-15T17:55:59.765Z,34.30
2022-12-15T17:59:05.692Z,34.17
2022-12-15T18:02:12.629Z,32.73
2022-12-15T18:05:17.363Z,33.40
2022-12-15T18:08:23.304Z,40.63
2022-12-15T18:11:26.495Z,39.17
2022-12-15T18:14:31.498Z,37.70
2022-12-15T18:17:35.061Z,36.77
2022-12-15T18:20:38.646Z,34.67
2022-12-15T18:23:43.484Z,33.67
2022-12-15T18:26:47.733Z,33.87
2022-12-15T18:29:52.888Z,37.73
2022-12-15T18:33:00.117Z,34.63
2022-12-15T18:36:04.263Z,35.67
2022-12-15T18:39:18.039Z,35.60
2022-12-15T18:42:22.991Z,35.37
2022-12-15T18:45:28.582Z,33.93
2022-12-15T18:48:35.155Z,34.67
2022-12-15T18:51:39.348Z,31.70
2022-12-15T18:54:43.818Z,35.40
2022-12-15T18:57:47.795Z,35.03
2022-12-15T19:00:53.847Z,35.50
2022-12-15T19:03:58.082Z,34.27
2022-12-15T19:07:06.665Z,35.43
2022-12-15T19:10:15.245Z,36.47
2022-12-15T19:13:23.057Z,35.30
2022-12-15T19:16:48.965Z,35.90
2022-12-15T19:20:10.256Z,35.60
2022-12-15T19:23:19.539Z,36.97
2022-12-15T19:26:24.963Z,35.70
2022-12-15T19:29:30.884Z,37.87
2022-12-15T19:32:36.362Z,38.07
2022-12-15T19:35:41.696Z,37.03
2022-12-15T19:38:47.571Z,39.00
2022-12-15T19:41:52.611Z,38.97
2022-12-15T19:45:01.657Z,39.37
2022-12-15T19:48:08.045Z,39.20
2022-12-15T19:51:19.507Z,40.20
2022-12-15T19:54:24.371Z,39.63
2022-12-15T19:57:28.472Z,46.93
2022-12-15T20:00:32.373Z,42.47
2022-12-15T20:03:38.765Z,40.57
2022-12-15T20:06:44.335Z,42.60
2022-12-15T20:09:48.607Z,42.00
2022-12-15T20:12:52.555Z,57.20
2022-12-15T20:15:56.890Z,47.63
2022-12-15T20:19:02.867Z,44.27
2022-12-15T20:22:06.949Z,39.83
2022-12-15T20:25:16.584Z,40.40
2022-12-15T20:28:23.437Z,42.33
2022-12-15T20:31:28.366Z,43.07
2022-12-15T20:34:33.196Z,37.23
2022-12-15T20:37:37.033Z,41.63
2022-12-15T20:40:40.869Z,40.50
2022-12-15T20:43:45.067Z,40.90
2022-12-15T20:46:48.672Z,41.30
2022-12-15T20:49:55.275Z,38.63
2022-12-15T20:52:58.564Z,39.87
2022-12-15T20:56:02.039Z,39.57
2022-12-15T20:59:06.253Z,42.90
2022-12-15T21:02:19.479Z,42.23
2022-12-15T21:05:26.179Z,40.97
2022-12-15T21:08:31.496Z,40.60
2022-12-15T21:11:34.972Z,40.80
2022-12-15T21:14:38.172Z,40.17
2022-12-15T21:17:42.217Z,41.97
2022-12-15T21:20:51.967Z,42.97
2022-12-15T21:23:55.790Z,40.60
2022-12-15T21:26:59.213Z,41.00
2022-12-15T21:30:02.451Z,39.33
2022-12-15T21:33:05.673Z,42.80
2022-12-15T21:36:13.576Z,41.30
2022-12-15T21:39:23.404Z,43.10
2022-12-15T21:42:27.393Z,43.17
2022-12-15T21:45:30.509Z,44.57
2022-12-15T21:49:05.906Z,43.33
2022-12-15T21:52:11.468Z,41.97
2022-12-15T21:55:16.648Z,43.90
2022-12-15T21:58:22.432Z,44.93
2022-12-15T22:01:29.611Z,44.17
2022-12-15T22:04:35.266Z,43.70
2022-12-15T22:07:39.722Z,47.30
2022-12-15T22:10:42.915Z,43.87
2022-12-15T22:13:46.129Z,43.30
2022-12-15T22:16:49.241Z,43.70
2022-12-15T22:19:52.418Z,43.83
2022-12-15T22:22:56.945Z,42.03
2022-12-15T22:26:00.135Z,44.37
2022-12-15T22:29:04.505Z,42.83
2022-12-15T22:32:14.054Z,45.20
2022-12-15T22:35:19.270Z,42.93
2022-12-15T22:38:24.564Z,44.70
2022-12-15T22:41:27.749Z,42.67
2022-12-15T22:44:33.859Z,41.90
2022-12-15T22:47:38.714Z,40.83
2022-12-15T22:50:41.999Z,42.57
2022-12-15T22:53:46.826Z,41.70
2022-12-15T22:56:53.708Z,42.83
2022-12-15T23:00:04.063Z,41.93
2022-12-15T23:03:10.240Z,45.07
2022-12-15T23:06:13.438Z,43.53
2022-12-15T23:09:17.895Z,45.30
2022-12-15T23:12:20.391Z,47.07
2022-12-15T23:15:42.608Z,46.13
2022-12-15T23:18:45.947Z,42.70
2022-12-15T23:21:49.042Z,43.53
2022-12-15T23:24:53.521Z,44.27
2022-12-15T23:27:56.650Z,43.77
2022-12-15T23:30:59.833Z,44.23
2022-12-15T23:34:02.955Z,44.00
2022-12-15T23:37:06.075Z,46.30
2022-12-15T23:40:12.558Z,44.20
2022-12-15T23:43:15.758Z,46.10
2022-12-15T23:46:19.545Z,47.23
2022-12-15T23:49:22.647Z,47.07
2022-12-15T23:52:28.648Z,46.13
2022-12-15T23:55:35.388Z,47.27
2022-12-15T23:58:39.406Z,48.43
